sensor_id;sensor_type;location;lat;lon;timestamp;P1;P2;P0
72509;PMS5003;60532;56.114;40.350;2024-03-06T00:00:51;4.67;4.67;1.00
72509;PMS5003;60532;56.114;40.350;2024-03-06T00:02:52;4.00;1.00;1.00
72509;PMS5003;60532;56.114;40.350;2024-03-06T00:04:52;3.33;2.00;1.00
72509;PMS5003;60532;56.114;40.350;2024-03-06T00:06:54;3.00;2.00;1.00
72509;PMS5003;60532;56.114;40.350;2024-03-06T00:08:56;4.75;2.00;1.00
72509;PMS5003;60532;56.114;40.350;2024-03-06T00:10:56;10.50;4.75;2.00
72509;PMS5003;60532;56.114;40.350;2024-03-06T00:12:57;6.00;6.00;2.00
72509;PMS5003;60532;56.114;40.350;2024-03-06T00:14:58;5.33;4.00;0.67
72509;PMS5003;60532;56.114;40.350;2024-03-06T00:16:59;4.33;2.00;1.00
72509;PMS5003;60532;56.114;40.350;2024-03-06T00:19:00;2.00;2.00;0.00
72509;PMS5003;60532;56.114;40.350;2024-03-06T00:21:00;5.00;3.33;1.00
72509;PMS5003;60532;56.114;40.350;2024-03-06T00:23:01;2.67;2.00;1.67
72509;PMS5003;60532;56.114;40.350;2024-03-06T00:25:02;0.00;0.00;0.00
72509;PMS5003;60532;56.114;40.350;2024-03-06T00:27:04;2.50;2.50;1.00
72509;PMS5003;60532;56.114;40.350;2024-03-06T00:29:06;4.25;4.00;0.50
72509;PMS5003;60532;56.114;40.350;2024-03-06T00:31:07;5.33;4.67;1.33
72509;PMS5003;60532;56.114;40.350;2024-03-06T00:33:08;1.75;1.75;0.00
72509;PMS5003;60532;56.114;40.350;2024-03-06T00:35:08;3.33;3.33;1.00
72509;PMS5003;60532;56.114;40.350;2024-03-06T00:37:09;2.00;2.00;1.00
72509;PMS5003;60532;56.114;40.350;2024-03-06T00:39:10;4.00;4.00;1.00
72509;PMS5003;60532;56.114;40.350;2024-03-06T00:41:11;4.25;4.25;1.00
72509;PMS5003;60532;56.114;40.350;2024-03-06T00:43:11;4.00;4.00;1.00
72509;PMS5003;60532;56.114;40.350;2024-03-06T00:45:12;4.67;2.00;0.33
72509;PMS5003;60532;56.114;40.350;2024-03-06T00:47:13;5.67;2.00;1.00
72509;PMS5003;60532;56.114;40.350;2024-03-06T00:49:14;8.67;3.33;1.00
72509;PMS5003;60532;56.114;40.350;2024-03-06T00:51:14;8.33;3.33;1.00
72509;PMS5003;60532;56.114;40.350;2024-03-06T00:53:15;4.00;4.00;1.00
72509;PMS5003;60532;56.114;40.350;2024-03-06T00:55:16;2.00;2.00;1.00
72509;PMS5003;60532;56.114;40.350;2024-03-06T00:57:17;3.33;1.33;0.67
72509;PMS5003;60532;56.114;40.350;2024-03-06T00:59:18;2.67;2.67;1.00
72509;PMS5003;60532;56.114;40.350;2024-03-06T01:01:18;3.33;3.33;1.00
72509;PMS5003;60532;56.114;40.350;2024-03-06T01:03:19;3.33;3.33;1.00
72509;PMS5003;60532;56.114;40.350;2024-03-06T01:05:20;4.33;4.33;1.67
72509;PMS5003;60532;56.114;40.350;2024-03-06T01:07:21;4.00;4.00;2.00
72509;PMS5003;60532;56.114;40.350;2024-03-06T01:09:22;4.00;4.00;1.00
72509;PMS5003;60532;56.114;40.350;2024-03-06T01:11:23;4.50;4.50;1.00
72509;PMS5003;60532;56.114;40.350;2024-03-06T01:13:24;4.75;2.50;1.00
72509;PMS5003;60532;56.114;40.350;2024-03-06T01:15:25;7.33;1.67;0.00
72509;PMS5003;60532;56.114;40.350;2024-03-06T01:17:26;7.33;5.67;1.00
72509;PMS5003;60532;56.114;40.350;2024-03-06T01:19:27;8.00;2.00;0.67
72509;PMS5003;60532;56.114;40.350;2024-03-06T01:21:28;2.75;1.75;1.00
72509;PMS5003;60532;56.114;40.350;2024-03-06T01:23:29;4.50;1.00;0.75
72509;PMS5003;60532;56.114;40.350;2024-03-06T01:25:30;2.50;1.75;1.00
72509;PMS5003;60532;56.114;40.350;2024-03-06T01:27:31;2.00;2.00;1.00
72509;PMS5003;60532;56.114;40.350;2024-03-06T01:29:32;3.33;3.33;1.00
72509;PMS5003;60532;56.114;40.350;2024-03-06T01:31:33;2.00;2.00;1.25
72509;PMS5003;60532;56.114;40.350;2024-03-06T01:33:34;4.33;2.67;1.00
72509;PMS5003;60532;56.114;40.350;2024-03-06T01:35:34;2.00;2.00;1.00
72509;PMS5003;60532;56.114;40.350;2024-03-06T01:37:35;7.00;3.33;1.00
72509;PMS5003;60532;56.114;40.350;2024-03-06T01:39:36;1.67;1.00;0.00
72509;PMS5003;60532;56.114;40.350;2024-03-06T01:41:37;7.00;2.00;1.00
72509;PMS5003;60532;56.114;40.350;2024-03-06T01:43:37;4.00;3.33;1.00
72509;PMS5003;60532;56.114;40.350;2024-03-06T01:45:41;3.00;1.50;0.00
72509;PMS5003;60532;56.114;40.350;2024-03-06T01:47:42;2.00;2.00;0.33
72509;PMS5003;60532;56.114;40.350;2024-03-06T01:49:43;4.33;4.33;1.33
72509;PMS5003;60532;56.114;40.350;2024-03-06T01:51:45;6.50;4.50;1.00
72509;PMS5003;60532;56.114;40.350;2024-03-06T01:53:48;3.50;2.00;0.50
72509;PMS5003;60532;56.114;40.350;2024-03-06T01:55:50;2.00;1.50;0.00
72509;PMS5003;60532;56.114;40.350;2024-03-06T01:57:51;3.33;2.00;1.00
72509;PMS5003;60532;56.114;40.350;2024-03-06T01:59:52;3.75;1.50;0.00
72509;PMS5003;60532;56.114;40.350;2024-03-06T02:01:53;4.00;2.50;1.75
72509;PMS5003;60532;56.114;40.350;2024-03-06T02:03:55;3.50;3.00;1.00
72509;PMS5003;60532;56.114;40.350;2024-03-06T02:05:56;1.00;1.00;0.00
72509;PMS5003;60532;56.114;40.350;2024-03-06T02:07:58;4.50;2.50;1.00
72509;PMS5003;60532;56.114;40.350;2024-03-06T02:10:02;7.00;2.50;1.00
72509;PMS5003;60532;56.114;40.350;2024-03-06T02:12:05;3.00;3.00;1.00
72509;PMS5003;60532;56.114;40.350;2024-03-06T02:14:10;4.50;2.00;1.00
72509;PMS5003;60532;56.114;40.350;2024-03-06T02:16:12;4.25;4.00;1.00
72509;PMS5003;60532;56.114;40.350;2024-03-06T02:18:13;3.50;2.00;0.50
72509;PMS5003;60532;56.114;40.350;2024-03-06T02:20:14;4.33;1.00;1.00
72509;PMS5003;60532;56.114;40.350;2024-03-06T02:22:16;6.00;3.50;1.00
72509;PMS5003;60532;56.114;40.350;2024-03-06T02:24:17;1.00;1.00;1.00
72509;PMS5003;60532;56.114;40.350;2024-03-06T02:26:17;5.00;2.67;0.67
72509;PMS5003;60532;56.114;40.350;2024-03-06T02:28:18;2.50;2.50;1.00
72509;PMS5003;60532;56.114;40.350;2024-03-06T02:30:19;2.67;2.67;1.00
72509;PMS5003;60532;56.114;40.350;2024-03-06T02:32:23;5.75;4.00;0.25
72509;PMS5003;60532;56.114;40.350;2024-03-06T02:34:24;4.25;4.25;1.00
72509;PMS5003;60532;56.114;40.350;2024-03-06T02:36:25;2.00;2.00;1.00
72509;PMS5003;60532;56.114;40.350;2024-03-06T02:38:26;2.33;1.00;0.33
72509;PMS5003;60532;56.114;40.350;2024-03-06T02:40:27;4.00;4.00;0.67
72509;PMS5003;60532;56.114;40.350;2024-03-06T02:42:28;4.00;4.00;1.00
72509;PMS5003;60532;56.114;40.350;2024-03-06T02:44:29;2.50;1.00;0.00
72509;PMS5003;60532;56.114;40.350;2024-03-06T02:46:30;2.67;1.33;0.33
72509;PMS5003;60532;56.114;40.350;2024-03-06T02:48:30;2.00;1.67;0.67
72509;PMS5003;60532;56.114;40.350;2024-03-06T02:50:31;1.00;1.00;0.00
72509;PMS5003;60532;56.114;40.350;2024-03-06T02:52:32;5.00;2.00;1.00
72509;PMS5003;60532;56.114;40.350;2024-03-06T02:54:33;4.00;2.00;0.00
72509;PMS5003;60532;56.114;40.350;2024-03-06T02:56:34;3.33;3.33;1.00
72509;PMS5003;60532;56.114;40.350;2024-03-06T02:58:35;4.00;2.67;1.00
72509;PMS5003;60532;56.114;40.350;2024-03-06T03:00:35;1.50;1.50;0.75
72509;PMS5003;60532;56.114;40.350;2024-03-06T03:02:36;1.00;1.00;0.00
72509;PMS5003;60532;56.114;40.350;2024-03-06T03:04:37;4.33;2.67;1.00
72509;PMS5003;60532;56.114;40.350;2024-03-06T03:06:38;4.33;1.00;0.67
72509;PMS5003;60532;56.114;40.350;2024-03-06T03:08:39;4.00;2.00;1.00
72509;PMS5003;60532;56.114;40.350;2024-03-06T03:10:40;2.50;1.50;0.75
72509;PMS5003;60532;56.114;40.350;2024-03-06T03:12:41;2.00;1.33;0.33
72509;PMS5003;60532;56.114;40.350;2024-03-06T03:14:42;2.50;2.50;0.25
72509;PMS5003;60532;56.114;40.350;2024-03-06T03:16:43;1.00;1.00;0.25
72509;PMS5003;60532;56.114;40.350;2024-03-06T03:18:44;4.75;3.00;0.75
72509;PMS5003;60532;56.114;40.350;2024-03-06T03:20:45;5.25;3.75;0.25
72509;PMS5003;60532;56.114;40.350;2024-03-06T03:22:47;6.25;4.25;1.00
72509;PMS5003;60532;56.114;40.350;2024-03-06T03:24:48;9.50;4.25;1.00
72509;PMS5003;60532;56.114;40.350;2024-03-06T03:26:49;7.33;5.00;2.00
72509;PMS5003;60532;56.114;40.350;2024-03-06T03:28:50;5.00;4.75;2.00
72509;PMS5003;60532;56.114;40.350;2024-03-06T03:30:51;5.33;4.33;1.00
72509;PMS5003;60532;56.114;40.350;2024-03-06T03:32:52;5.67;4.33;1.33
72509;PMS5003;60532;56.114;40.350;2024-03-06T03:34:53;2.00;2.00;1.00
72509;PMS5003;60532;56.114;40.350;2024-03-06T03:36:53;3.50;1.50;0.25
72509;PMS5003;60532;56.114;40.350;2024-03-06T03:38:54;5.00;4.33;1.67
72509;PMS5003;60532;56.114;40.350;2024-03-06T03:40:55;6.33;6.33;2.00
72509;PMS5003;60532;56.114;40.350;2024-03-06T03:42:56;7.67;6.33;1.00
72509;PMS5003;60532;56.114;40.350;2024-03-06T03:44:56;6.33;6.33;3.33
72509;PMS5003;60532;56.114;40.350;2024-03-06T03:46:57;10.00;4.00;2.00
72509;PMS5003;60532;56.114;40.350;2024-03-06T03:48:58;8.00;6.33;2.00
72509;PMS5003;60532;56.114;40.350;2024-03-06T03:50:58;11.00;7.00;2.00
72509;PMS5003;60532;56.114;40.350;2024-03-06T03:52:59;10.00;8.00;3.33
72509;PMS5003;60532;56.114;40.350;2024-03-06T03:55:01;11.25;8.50;4.00
72509;PMS5003;60532;56.114;40.350;2024-03-06T03:57:05;7.00;4.00;2.00
72509;PMS5003;60532;56.114;40.350;2024-03-06T03:59:07;5.00;5.00;1.00
72509;PMS5003;60532;56.114;40.350;2024-03-06T04:01:09;12.33;8.00;2.00
72509;PMS5003;60532;56.114;40.350;2024-03-06T04:03:10;5.50;4.50;2.00
72509;PMS5003;60532;56.114;40.350;2024-03-06T04:05:11;7.00;5.00;2.00
72509;PMS5003;60532;56.114;40.350;2024-03-06T04:07:12;9.50;7.00;2.00
72509;PMS5003;60532;56.114;40.350;2024-03-06T04:09:13;5.67;5.67;1.67
72509;PMS5003;60532;56.114;40.350;2024-03-06T04:11:15;14.50;10.50;4.00
72509;PMS5003;60532;56.114;40.350;2024-03-06T04:13:16;9.33;5.33;2.67
72509;PMS5003;60532;56.114;40.350;2024-03-06T04:15:17;11.33;6.33;4.00
72509;PMS5003;60532;56.114;40.350;2024-03-06T04:17:18;11.50;8.00;4.00
72509;PMS5003;60532;56.114;40.350;2024-03-06T04:19:18;13.00;9.00;2.67
72509;PMS5003;60532;56.114;40.350;2024-03-06T04:21:19;13.33;9.00;4.33
72509;PMS5003;60532;56.114;40.350;2024-03-06T04:23:20;8.33;7.00;4.00
72509;PMS5003;60532;56.114;40.350;2024-03-06T04:25:21;13.00;9.00;4.00
72509;PMS5003;60532;56.114;40.350;2024-03-06T04:27:21;11.33;9.00;5.00
72509;PMS5003;60532;56.114;40.350;2024-03-06T04:29:22;13.33;9.00;5.00
72509;PMS5003;60532;56.114;40.350;2024-03-06T04:31:23;16.00;11.00;5.00
72509;PMS5003;60532;56.114;40.350;2024-03-06T04:33:23;12.67;10.33;4.00
72509;PMS5003;60532;56.114;40.350;2024-03-06T04:35:24;12.33;12.33;4.33
72509;PMS5003;60532;56.114;40.350;2024-03-06T04:37:25;11.50;10.25;4.75
72509;PMS5003;60532;56.114;40.350;2024-03-06T04:39:27;18.75;14.25;4.50
72509;PMS5003;60532;56.114;40.350;2024-03-06T04:41:28;21.50;15.50;3.50
72509;PMS5003;60532;56.114;40.350;2024-03-06T04:43:28;15.33;12.00;5.00
72509;PMS5003;60532;56.114;40.350;2024-03-06T04:45:36;11.50;7.50;1.25
72509;PMS5003;60532;56.114;40.350;2024-03-06T04:47:36;19.25;13.50;7.00
72509;PMS5003;60532;56.114;40.350;2024-03-06T04:49:37;16.67;12.33;6.00
72509;PMS5003;60532;56.114;40.350;2024-03-06T04:51:38;17.50;13.50;6.00
72509;PMS5003;60532;56.114;40.350;2024-03-06T04:53:39;21.00;14.67;5.00
72509;PMS5003;60532;56.114;40.350;2024-03-06T04:55:43;25.50;23.25;8.00
72509;PMS5003;60532;56.114;40.350;2024-03-06T04:57:44;27.67;16.00;8.00
72509;PMS5003;60532;56.114;40.350;2024-03-06T04:59:46;13.50;13.00;5.75
72509;PMS5003;60532;56.114;40.350;2024-03-06T05:01:47;21.67;16.67;6.00
72509;PMS5003;60532;56.114;40.350;2024-03-06T05:03:47;25.00;17.00;6.67
72509;PMS5003;60532;56.114;40.350;2024-03-06T05:05:50;18.50;16.50;7.25
72509;PMS5003;60532;56.114;40.350;2024-03-06T05:07:50;26.50;20.25;7.50
72509;PMS5003;60532;56.114;40.350;2024-03-06T05:09:52;22.00;15.00;6.00
72509;PMS5003;60532;56.114;40.350;2024-03-06T05:11:53;27.67;19.33;9.00
72509;PMS5003;60532;56.114;40.350;2024-03-06T05:13:54;24.67;17.00;8.00
72509;PMS5003;60532;56.114;40.350;2024-03-06T05:15:55;23.75;17.75;9.00
72509;PMS5003;60532;56.114;40.350;2024-03-06T05:17:56;20.33;17.33;8.67
72509;PMS5003;60532;56.114;40.350;2024-03-06T05:19:57;20.75;15.50;6.50
72509;PMS5003;60532;56.114;40.350;2024-03-06T05:21:58;22.50;19.25;9.00
72509;PMS5003;60532;56.114;40.350;2024-03-06T05:23:59;22.00;15.50;6.00
72509;PMS5003;60532;56.114;40.350;2024-03-06T05:26:00;24.67;16.67;8.00
72509;PMS5003;60532;56.114;40.350;2024-03-06T05:28:01;20.33;13.67;6.00
72509;PMS5003;60532;56.114;40.350;2024-03-06T05:30:01;19.67;17.33;5.00
72509;PMS5003;60532;56.114;40.350;2024-03-06T05:32:05;22.00;14.50;8.00
72509;PMS5003;60532;56.114;40.350;2024-03-06T05:34:07;20.00;16.00;6.00
72509;PMS5003;60532;56.114;40.350;2024-03-06T05:36:08;15.75;14.75;6.00
72509;PMS5003;60532;56.114;40.350;2024-03-06T05:38:09;18.67;15.00;5.33
72509;PMS5003;60532;56.114;40.350;2024-03-06T05:40:10;19.67;17.00;6.00
72509;PMS5003;60532;56.114;40.350;2024-03-06T05:42:11;15.75;12.75;6.00
72509;PMS5003;60532;56.114;40.350;2024-03-06T05:44:12;19.33;15.33;6.00
72509;PMS5003;60532;56.114;40.350;2024-03-06T05:46:12;12.00;12.00;5.00
72509;PMS5003;60532;56.114;40.350;2024-03-06T05:48:13;15.33;15.00;8.00
72509;PMS5003;60532;56.114;40.350;2024-03-06T05:50:14;13.75;13.50;8.50
72509;PMS5003;60532;56.114;40.350;2024-03-06T05:52:16;15.00;12.50;4.00
72509;PMS5003;60532;56.114;40.350;2024-03-06T05:54:16;20.00;16.50;8.00
72509;PMS5003;60532;56.114;40.350;2024-03-06T05:56:17;20.33;16.00;6.00
72509;PMS5003;60532;56.114;40.350;2024-03-06T05:58:18;8.25;5.50;0.00
72509;PMS5003;60532;56.114;40.350;2024-03-06T06:00:19;22.33;19.00;8.00
72509;PMS5003;60532;56.114;40.350;2024-03-06T06:02:22;24.00;17.25;9.25
72509;PMS5003;60532;56.114;40.350;2024-03-06T06:04:23;22.67;16.33;7.33
72509;PMS5003;60532;56.114;40.350;2024-03-06T06:06:23;19.00;19.00;8.00
72509;PMS5003;60532;56.114;40.350;2024-03-06T06:08:24;22.33;18.33;9.00
72509;PMS5003;60532;56.114;40.350;2024-03-06T06:10:26;20.33;16.00;9.00
72509;PMS5003;60532;56.114;40.350;2024-03-06T06:12:27;23.50;21.00;9.00
72509;PMS5003;60532;56.114;40.350;2024-03-06T06:14:28;20.67;15.67;9.00
72509;PMS5003;60532;56.114;40.350;2024-03-06T06:16:38;21.75;16.50;8.25
72509;PMS5003;60532;56.114;40.350;2024-03-06T06:18:41;24.50;20.00;7.75
72509;PMS5003;60532;56.114;40.350;2024-03-06T06:20:42;15.75;13.00;8.50
72509;PMS5003;60532;56.114;40.350;2024-03-06T06:22:43;21.67;16.67;8.33
72509;PMS5003;60532;56.114;40.350;2024-03-06T06:24:44;18.00;16.50;8.25
72509;PMS5003;60532;56.114;40.350;2024-03-06T06:26:46;23.25;16.00;6.00
72509;PMS5003;60532;56.114;40.350;2024-03-06T06:28:47;22.25;18.75;7.50
72509;PMS5003;60532;56.114;40.350;2024-03-06T06:30:48;22.75;16.75;5.00
72509;PMS5003;60532;56.114;40.350;2024-03-06T06:32:49;24.00;20.00;8.00
72509;PMS5003;60532;56.114;40.350;2024-03-06T06:34:49;23.33;17.67;9.00
72509;PMS5003;60532;56.114;40.350;2024-03-06T06:36:50;19.67;19.33;8.33
72509;PMS5003;60532;56.114;40.350;2024-03-06T06:38:53;6.00;6.00;2.00
72509;PMS5003;60532;56.114;40.350;2024-03-06T06:40:55;26.25;19.50;9.25
72509;PMS5003;60532;56.114;40.350;2024-03-06T06:42:56;28.00;17.25;8.75
72509;PMS5003;60532;56.114;40.350;2024-03-06T06:44:57;23.50;19.50;8.50
72509;PMS5003;60532;56.114;40.350;2024-03-06T06:46:57;28.67;19.33;8.33
72509;PMS5003;60532;56.114;40.350;2024-03-06T06:48:59;24.25;16.50;5.25
72509;PMS5003;60532;56.114;40.350;2024-03-06T06:51:00;25.33;20.00;10.00
72509;PMS5003;60532;56.114;40.350;2024-03-06T06:53:03;26.75;13.50;3.50
72509;PMS5003;60532;56.114;40.350;2024-03-06T06:55:04;24.00;19.33;10.33
72509;PMS5003;60532;56.114;40.350;2024-03-06T06:57:06;22.75;14.50;5.50
72509;PMS5003;60532;56.114;40.350;2024-03-06T06:59:06;23.33;21.00;9.67
72509;PMS5003;60532;56.114;40.350;2024-03-06T07:01:07;20.50;16.00;8.00
72509;PMS5003;60532;56.114;40.350;2024-03-06T07:03:08;22.00;19.67;7.33
72509;PMS5003;60532;56.114;40.350;2024-03-06T07:05:09;19.33;16.00;8.33
72509;PMS5003;60532;56.114;40.350;2024-03-06T07:07:11;18.50;18.50;9.00
72509;PMS5003;60532;56.114;40.350;2024-03-06T07:09:12;23.33;19.33;8.00
72509;PMS5003;60532;56.114;40.350;2024-03-06T07:11:12;21.75;18.75;6.00
72509;PMS5003;60532;56.114;40.350;2024-03-06T07:13:13;16.00;13.00;6.00
72509;PMS5003;60532;56.114;40.350;2024-03-06T07:15:14;17.33;15.67;6.67
72509;PMS5003;60532;56.114;40.350;2024-03-06T07:17:15;20.33;15.33;8.00
72509;PMS5003;60532;56.114;40.350;2024-03-06T07:19:15;21.67;20.33;9.00
72509;PMS5003;60532;56.114;40.350;2024-03-06T07:21:17;21.50;17.00;8.00
72509;PMS5003;60532;56.114;40.350;2024-03-06T07:23:18;21.25;16.25;9.00
72509;PMS5003;60532;56.114;40.350;2024-03-06T07:25:19;26.33;16.33;8.67
72509;PMS5003;60532;56.114;40.350;2024-03-06T07:27:20;20.00;15.00;8.00
72509;PMS5003;60532;56.114;40.350;2024-03-06T07:29:21;22.67;16.67;6.67
72509;PMS5003;60532;56.114;40.350;2024-03-06T07:31:22;19.67;15.00;6.00
72509;PMS5003;60532;56.114;40.350;2024-03-06T07:33:23;18.00;14.33;6.67
72509;PMS5003;60532;56.114;40.350;2024-03-06T07:35:23;23.67;20.00;6.67
72509;PMS5003;60532;56.114;40.350;2024-03-06T07:37:24;26.67;19.67;8.33
72509;PMS5003;60532;56.114;40.350;2024-03-06T07:39:25;18.75;17.00;8.75
72509;PMS5003;60532;56.114;40.350;2024-03-06T07:41:26;19.50;17.25;8.00
72509;PMS5003;60532;56.114;40.350;2024-03-06T07:43:27;15.67;14.00;6.67
72509;PMS5003;60532;56.114;40.350;2024-03-06T07:45:28;27.00;22.00;6.00
72509;PMS5003;60532;56.114;40.350;2024-03-06T07:47:29;19.00;13.75;8.25
72509;PMS5003;60532;56.114;40.350;2024-03-06T07:49:30;16.50;12.50;4.00
72509;PMS5003;60532;56.114;40.350;2024-03-06T07:51:32;17.50;15.00;6.00
72509;PMS5003;60532;56.114;40.350;2024-03-06T07:53:33;12.00;12.00;5.00
72509;PMS5003;60532;56.114;40.350;2024-03-06T07:55:34;15.67;14.33;6.67
72509;PMS5003;60532;56.114;40.350;2024-03-06T07:57:34;15.00;12.00;5.33
72509;PMS5003;60532;56.114;40.350;2024-03-06T07:59:35;15.00;13.00;7.33
72509;PMS5003;60532;56.114;40.350;2024-03-06T08:01:36;17.33;16.00;5.00
72509;PMS5003;60532;56.114;40.350;2024-03-06T08:03:38;24.67;12.33;5.33
72509;PMS5003;60532;56.114;40.350;2024-03-06T08:05:40;13.00;12.25;4.75
72509;PMS5003;60532;56.114;40.350;2024-03-06T08:07:40;16.67;13.33;6.00
72509;PMS5003;60532;56.114;40.350;2024-03-06T08:09:42;20.25;14.50;6.50
72509;PMS5003;60532;56.114;40.350;2024-03-06T08:11:43;19.33;17.00;8.00
72509;PMS5003;60532;56.114;40.350;2024-03-06T08:13:44;19.33;16.33;8.00
72509;PMS5003;60532;56.114;40.350;2024-03-06T08:15:45;16.00;14.33;6.67
72509;PMS5003;60532;56.114;40.350;2024-03-06T08:17:47;17.75;14.75;8.25
72509;PMS5003;60532;56.114;40.350;2024-03-06T08:19:48;12.50;12.50;6.00
72509;PMS5003;60532;56.114;40.350;2024-03-06T08:21:49;14.00;10.67;6.67
72509;PMS5003;60532;56.114;40.350;2024-03-06T08:23:49;17.67;13.33;5.33
72509;PMS5003;60532;56.114;40.350;2024-03-06T08:25:50;19.33;14.67;5.00
72509;PMS5003;60532;56.114;40.350;2024-03-06T08:27:51;14.00;13.00;5.75
72509;PMS5003;60532;56.114;40.350;2024-03-06T08:29:52;17.33;12.00;5.33
72509;PMS5003;60532;56.114;40.350;2024-03-06T08:31:52;16.00;10.00;4.33
72509;PMS5003;60532;56.114;40.350;2024-03-06T08:33:53;17.33;13.00;5.33
72509;PMS5003;60532;56.114;40.350;2024-03-06T08:35:54;11.50;10.75;6.00
72509;PMS5003;60532;56.114;40.350;2024-03-06T08:37:55;17.33;15.67;5.00
72509;PMS5003;60532;56.114;40.350;2024-03-06T08:39:56;12.33;12.00;5.67
72509;PMS5003;60532;56.114;40.350;2024-03-06T08:41:56;18.00;12.67;5.67
72509;PMS5003;60532;56.114;40.350;2024-03-06T08:43:58;11.50;10.75;5.00
72509;PMS5003;60532;56.114;40.350;2024-03-06T08:45:59;16.00;11.33;1.33
72509;PMS5003;60532;56.114;40.350;2024-03-06T08:47:59;13.67;11.00;2.00
72509;PMS5003;60532;56.114;40.350;2024-03-06T08:50:00;17.00;15.67;6.00
72509;PMS5003;60532;56.114;40.350;2024-03-06T08:52:05;17.75;14.50;7.25
72509;PMS5003;60532;56.114;40.350;2024-03-06T08:54:05;20.00;14.67;6.00
72509;PMS5003;60532;56.114;40.350;2024-03-06T08:56:07;19.50;17.75;6.00
72509;PMS5003;60532;56.114;40.350;2024-03-06T08:58:08;15.33;15.33;7.33
72509;PMS5003;60532;56.114;40.350;2024-03-06T09:00:09;21.25;14.00;7.00
72509;PMS5003;60532;56.114;40.350;2024-03-06T09:02:15;21.00;14.25;6.00
72509;PMS5003;60532;56.114;40.350;2024-03-06T09:04:17;22.25;16.50;7.25
72509;PMS5003;60532;56.114;40.350;2024-03-06T09:06:18;18.75;15.00;6.50
72509;PMS5003;60532;56.114;40.350;2024-03-06T09:08:18;19.67;17.00;9.00
72509;PMS5003;60532;56.114;40.350;2024-03-06T09:10:20;18.75;14.25;6.75
72509;PMS5003;60532;56.114;40.350;2024-03-06T09:12:21;17.00;10.00;5.00
72509;PMS5003;60532;56.114;40.350;2024-03-06T09:14:22;17.00;12.67;7.33
72509;PMS5003;60532;56.114;40.350;2024-03-06T09:16:23;15.25;15.00;6.25
72509;PMS5003;60532;56.114;40.350;2024-03-06T09:18:24;16.50;12.75;5.00
72509;PMS5003;60532;56.114;40.350;2024-03-06T09:20:25;13.67;12.33;7.33
72509;PMS5003;60532;56.114;40.350;2024-03-06T09:22:26;13.25;11.50;5.50
72509;PMS5003;60532;56.114;40.350;2024-03-06T09:24:27;14.67;10.33;5.67
72509;PMS5003;60532;56.114;40.350;2024-03-06T09:26:28;15.00;13.00;5.75
72509;PMS5003;60532;56.114;40.350;2024-03-06T09:28:29;21.67;15.33;6.00
72509;PMS5003;60532;56.114;40.350;2024-03-06T09:30:29;20.67;13.67;5.00
72509;PMS5003;60532;56.114;40.350;2024-03-06T09:32:30;15.33;15.33;6.00
72509;PMS5003;60532;56.114;40.350;2024-03-06T09:34:31;14.75;13.00;6.25
72509;PMS5003;60532;56.114;40.350;2024-03-06T09:36:32;15.67;11.00;5.00
72509;PMS5003;60532;56.114;40.350;2024-03-06T09:38:33;11.50;10.25;5.50
72509;PMS5003;60532;56.114;40.350;2024-03-06T09:40:34;12.67;10.67;5.67
72509;PMS5003;60532;56.114;40.350;2024-03-06T09:42:35;13.75;12.00;5.00
72509;PMS5003;60532;56.114;40.350;2024-03-06T09:44:36;18.25;13.25;6.00
72509;PMS5003;60532;56.114;40.350;2024-03-06T09:46:37;11.33;10.00;4.67
72509;PMS5003;60532;56.114;40.350;2024-03-06T09:48:40;15.75;10.00;3.50
72509;PMS5003;60532;56.114;40.350;2024-03-06T09:50:45;15.50;9.75;4.25
72509;PMS5003;60532;56.114;40.350;2024-03-06T09:52:47;11.25;9.25;3.00
72509;PMS5003;60532;56.114;40.350;2024-03-06T09:54:48;11.50;7.50;3.00
72509;PMS5003;60532;56.114;40.350;2024-03-06T09:56:50;12.00;7.00;4.50
72509;PMS5003;60532;56.114;40.350;2024-03-06T09:58:50;11.50;7.75;2.50
72509;PMS5003;60532;56.114;40.350;2024-03-06T10:00:54;12.50;8.50;5.00
72509;PMS5003;60532;56.114;40.350;2024-03-06T10:02:58;9.75;6.00;3.00
72509;PMS5003;60532;56.114;40.350;2024-03-06T10:05:02;12.25;9.75;3.00
72509;PMS5003;60532;56.114;40.350;2024-03-06T10:07:03;6.25;5.50;2.00
72509;PMS5003;60532;56.114;40.350;2024-03-06T10:09:04;12.00;6.75;3.00
72509;PMS5003;60532;56.114;40.350;2024-03-06T10:11:08;9.75;7.25;3.00
72509;PMS5003;60532;56.114;40.350;2024-03-06T10:13:09;8.75;6.75;2.75
72509;PMS5003;60532;56.114;40.350;2024-03-06T10:15:10;11.75;9.75;3.00
72509;PMS5003;60532;56.114;40.350;2024-03-06T10:17:13;11.50;8.75;5.00
72509;PMS5003;60532;56.114;40.350;2024-03-06T10:19:19;11.75;8.00;3.00
72509;PMS5003;60532;56.114;40.350;2024-03-06T10:21:29;9.75;7.50;2.00
72509;PMS5003;60532;56.114;40.350;2024-03-06T10:23:32;7.75;7.75;3.00
72509;PMS5003;60532;56.114;40.350;2024-03-06T10:25:33;5.50;5.50;1.50
72509;PMS5003;60532;56.114;40.350;2024-03-06T10:27:33;6.67;6.67;1.67
72509;PMS5003;60532;56.114;40.350;2024-03-06T10:29:34;10.67;7.00;2.67
72509;PMS5003;60532;56.114;40.350;2024-03-06T10:31:35;10.75;6.75;2.00
72509;PMS5003;60532;56.114;40.350;2024-03-06T10:33:36;10.00;6.00;2.33
72509;PMS5003;60532;56.114;40.350;2024-03-06T10:35:39;7.50;7.50;3.00
72509;PMS5003;60532;56.114;40.350;2024-03-06T10:37:40;7.25;6.00;1.75
72509;PMS5003;60532;56.114;40.350;2024-03-06T10:39:42;9.50;6.00;2.25
72509;PMS5003;60532;56.114;40.350;2024-03-06T10:41:44;5.25;5.25;2.00
72509;PMS5003;60532;56.114;40.350;2024-03-06T10:43:47;4.00;2.00;0.75
72509;PMS5003;60532;56.114;40.350;2024-03-06T10:45:49;13.25;5.50;1.75
72509;PMS5003;60532;56.114;40.350;2024-03-06T10:47:50;7.25;5.00;2.00
72509;PMS5003;60532;56.114;40.350;2024-03-06T10:49:52;7.75;5.50;2.00
72509;PMS5003;60532;56.114;40.350;2024-03-06T10:51:57;9.00;7.00;2.00
72509;PMS5003;60532;56.114;40.350;2024-03-06T10:53:58;6.00;2.75;0.00
72509;PMS5003;60532;56.114;40.350;2024-03-06T10:56:00;6.75;6.25;2.50
72509;PMS5003;60532;56.114;40.350;2024-03-06T10:58:05;6.75;6.75;3.75
72509;PMS5003;60532;56.114;40.350;2024-03-06T11:00:09;4.75;4.75;1.75
72509;PMS5003;60532;56.114;40.350;2024-03-06T11:02:10;11.25;7.00;3.25
72509;PMS5003;60532;56.114;40.350;2024-03-06T11:04:13;9.50;9.50;3.00
72509;PMS5003;60532;56.114;40.350;2024-03-06T11:06:15;11.75;6.50;2.50
72509;PMS5003;60532;56.114;40.350;2024-03-06T11:08:16;11.00;6.00;4.00
72509;PMS5003;60532;56.114;40.350;2024-03-06T11:10:30;12.50;10.00;3.25
72509;PMS5003;60532;56.114;40.350;2024-03-06T11:12:37;9.00;7.50;2.00
72509;PMS5003;60532;56.114;40.350;2024-03-06T11:14:40;9.00;5.75;2.00
72509;PMS5003;60532;56.114;40.350;2024-03-06T11:19:06;6.75;6.75;2.00
72509;PMS5003;60532;56.114;40.350;2024-03-06T11:23:09;9.50;7.50;2.00
72509;PMS5003;60532;56.114;40.350;2024-03-06T11:25:48;9.25;5.50;1.50
72509;PMS5003;60532;56.114;40.350;2024-03-06T11:27:31;5.00;5.00;2.00
72509;PMS5003;60532;56.114;40.350;2024-03-06T11:31:59;10.75;9.00;4.00
72509;PMS5003;60532;56.114;40.350;2024-03-06T11:34:02;9.00;6.50;3.00
72509;PMS5003;60532;56.114;40.350;2024-03-06T11:38:24;11.75;6.50;1.75